sensor_id;sensor_type;location;lat;lon;timestamp;pressure;altitude;pressure_sealevel;temperature;humidity
76864;BME280;65834;52.364;9.754;2023-03-23T00:00:40;99769.25;;;12.74;nan
76864;BME280;65834;52.364;9.754;2023-03-23T00:03:10;99760.75;;;12.70;nan
76864;BME280;65834;52.364;9.754;2023-03-23T00:05:40;99762.41;;;12.71;nan
76864;BME280;65834;52.364;9.754;2023-03-23T00:08:16;99758.63;;;12.47;nan
76864;BME280;65834;52.364;9.754;2023-03-23T00:10:48;99755.25;;;12.52;nan
76864;BME280;65834;52.364;9.754;2023-03-23T00:13:19;99753.66;;;12.44;nan
76864;BME280;65834;52.364;9.754;2023-03-23T00:15:52;99757.41;;;12.43;nan
76864;BME280;65834;52.364;9.754;2023-03-23T00:18:23;99757.09;;;12.33;nan
76864;BME280;65834;52.364;9.754;2023-03-23T00:20:55;99755.19;;;12.34;nan
76864;BME280;65834;52.364;9.754;2023-03-23T00:23:25;99752.72;;;12.32;nan
76864;BME280;65834;52.364;9.754;2023-03-23T00:25:56;99743.78;;;12.25;nan
76864;BME280;65834;52.364;9.754;2023-03-23T00:28:26;99741.91;;;12.26;nan
76864;BME280;65834;52.364;9.754;2023-03-23T00:31:00;99739.19;;;12.26;nan
76864;BME280;65834;52.364;9.754;2023-03-23T00:33:31;99742.06;;;12.31;nan
76864;BME280;65834;52.364;9.754;2023-03-23T00:36:05;99741.34;;;12.17;nan
76864;BME280;65834;52.364;9.754;2023-03-23T00:38:36;99743.44;;;12.15;nan
76864;BME280;65834;52.364;9.754;2023-03-23T00:41:06;99736.41;;;12.08;nan
76864;BME280;65834;52.364;9.754;2023-03-23T00:43:38;99733.09;;;12.06;nan
76864;BME280;65834;52.364;9.754;2023-03-23T00:46:10;99727.28;;;12.02;nan
76864;BME280;65834;52.364;9.754;2023-03-23T00:48:40;99730.38;;;12.06;nan
76864;BME280;65834;52.364;9.754;2023-03-23T00:51:11;99733.31;;;12.04;nan
76864;BME280;65834;52.364;9.754;2023-03-23T00:53:42;99725.41;;;12.03;nan
76864;BME280;65834;52.364;9.754;2023-03-23T00:56:12;99728.78;;;11.91;nan
76864;BME280;65834;52.364;9.754;2023-03-23T00:58:42;99724.38;;;11.97;nan
76864;BME280;65834;52.364;9.754;2023-03-23T01:01:14;99728.75;;;11.98;nan
76864;BME280;65834;52.364;9.754;2023-03-23T01:03:44;99719.78;;;11.98;nan
76864;BME280;65834;52.364;9.754;2023-03-23T01:06:13;99718.75;;;11.99;nan
76864;BME280;65834;52.364;9.754;2023-03-23T01:08:43;99716.03;;;11.99;nan
76864;BME280;65834;52.364;9.754;2023-03-23T01:11:16;99719.59;;;11.99;nan
76864;BME280;65834;52.364;9.754;2023-03-23T01:13:46;99719.19;;;11.95;nan
76864;BME280;65834;52.364;9.754;2023-03-23T01:16:18;99709.38;;;11.94;nan
76864;BME280;65834;52.364;9.754;2023-03-23T01:18:48;99704.31;;;12.05;nan
76864;BME280;65834;52.364;9.754;2023-03-23T01:21:19;99704.53;;;12.03;nan
76864;BME280;65834;52.364;9.754;2023-03-23T01:23:49;99701.44;;;12.00;nan
76864;BME280;65834;52.364;9.754;2023-03-23T01:26:20;99687.53;;;11.89;nan
76864;BME280;65834;52.364;9.754;2023-03-23T01:28:51;99686.03;;;11.93;nan
76864;BME280;65834;52.364;9.754;2023-03-23T01:31:25;99688.97;;;11.92;nan
76864;BME280;65834;52.364;9.754;2023-03-23T01:33:55;99681.06;;;11.90;nan
76864;BME280;65834;52.364;9.754;2023-03-23T01:36:26;99682.28;;;11.94;nan
76864;BME280;65834;52.364;9.754;2023-03-23T01:39:03;99682.72;;;11.91;nan
76864;BME280;65834;52.364;9.754;2023-03-23T01:41:34;99679.84;;;11.86;nan
76864;BME280;65834;52.364;9.754;2023-03-23T01:47:12;99668.78;;;11.88;nan
76864;BME280;65834;52.364;9.754;2023-03-23T01:49:44;99667.38;;;11.79;nan
76864;BME280;65834;52.364;9.754;2023-03-23T01:52:19;99664.88;;;11.84;nan
76864;BME280;65834;52.364;9.754;2023-03-23T01:54:52;99682.56;;;11.86;nan
76864;BME280;65834;52.364;9.754;2023-03-23T01:57:24;99663.81;;;11.85;nan
76864;BME280;65834;52.364;9.754;2023-03-23T02:00:00;99665.69;;;11.84;nan
76864;BME280;65834;52.364;9.754;2023-03-23T02:02:43;99676.31;;;11.86;nan
76864;BME280;65834;52.364;9.754;2023-03-23T02:05:19;99659.06;;;11.80;nan
76864;BME280;65834;52.364;9.754;2023-03-23T02:07:51;99668.81;;;11.81;nan
76864;BME280;65834;52.364;9.754;2023-03-23T02:10:21;99666.94;;;11.82;nan
76864;BME280;65834;52.364;9.754;2023-03-23T02:12:51;99677.59;;;11.83;nan
76864;BME280;65834;52.364;9.754;2023-03-23T02:15:21;99666.78;;;11.77;nan
76864;BME280;65834;52.364;9.754;2023-03-23T02:17:59;99664.47;;;11.80;nan
76864;BME280;65834;52.364;9.754;2023-03-23T02:20:44;99661.97;;;11.79;nan
76864;BME280;65834;52.364;9.754;2023-03-23T02:23:32;99654.47;;;11.81;nan
76864;BME280;65834;52.364;9.754;2023-03-23T03:42:54;99165.44;;;8.95;nan
76864;BME280;65834;52.364;9.754;2023-03-23T03:45:25;99599.59;;;11.54;nan
76864;BME280;65834;52.364;9.754;2023-03-23T03:47:55;99592.91;;;11.57;nan
76864;BME280;65834;52.364;9.754;2023-03-23T03:50:27;99590.03;;;11.52;nan
76864;BME280;65834;52.364;9.754;2023-03-23T03:52:57;99599.38;;;11.56;nan
76864;BME280;65834;52.364;9.754;2023-03-23T03:55:27;99603.53;;;11.58;nan
76864;BME280;65834;52.364;9.754;2023-03-23T03:58:05;99595.69;;;11.50;nan
76864;BME280;65834;52.364;9.754;2023-03-23T04:01:13;99591.31;;;11.49;nan
76864;BME280;65834;52.364;9.754;2023-03-23T04:03:43;99595.69;;;11.50;nan
76864;BME280;65834;52.364;9.754;2023-03-23T04:06:29;99579.59;;;11.55;nan
76864;BME280;65834;52.364;9.754;2023-03-23T04:08:59;99576.28;;;11.53;nan
76864;BME280;65834;52.364;9.754;2023-03-23T04:11:34;99578.38;;;11.51;nan
76864;BME280;65834;52.364;9.754;2023-03-23T04:14:24;99590.19;;;11.57;nan
76864;BME280;65834;52.364;9.754;2023-03-23T04:16:54;99588.13;;;11.59;nan
76864;BME280;65834;52.364;9.754;2023-03-23T04:19:25;99585.00;;;11.55;nan
76864;BME280;65834;52.364;9.754;2023-03-23T04:21:58;99590.63;;;11.54;nan
76864;BME280;65834;52.364;9.754;2023-03-23T04:24:30;99593.13;;;11.55;nan
76864;BME280;65834;52.364;9.754;2023-03-23T04:27:22;99586.69;;;11.56;nan
76864;BME280;65834;52.364;9.754;2023-03-23T04:29:51;99580.88;;;11.53;nan
76864;BME280;65834;52.364;9.754;2023-03-23T04:32:40;99570.63;;;11.55;nan
76864;BME280;65834;52.364;9.754;2023-03-23T04:35:17;99571.25;;;11.57;nan
76864;BME280;65834;52.364;9.754;2023-03-23T04:37:58;99571.25;;;11.57;nan
76864;BME280;65834;52.364;9.754;2023-03-23T04:40:27;99561.53;;;11.49;nan
76864;BME280;65834;52.364;9.754;2023-03-23T04:43:07;99566.34;;;11.47;nan
76864;BME280;65834;52.364;9.754;2023-03-23T04:45:52;99566.53;;;11.46;nan
76864;BME280;65834;52.364;9.754;2023-03-23T04:48:24;99563.00;;;11.45;nan
76864;BME280;65834;52.364;9.754;2023-03-23T04:51:03;99558.47;;;11.39;nan
76864;BME280;65834;52.364;9.754;2023-03-23T04:53:35;99564.72;;;11.39;nan
76864;BME280;65834;52.364;9.754;2023-03-23T04:56:05;99550.34;;;11.39;nan
76864;BME280;65834;52.364;9.754;2023-03-23T04:58:41;99547.03;;;11.37;nan
76864;BME280;65834;52.364;9.754;2023-03-23T05:01:24;99543.94;;;11.33;nan
76864;BME280;65834;52.364;9.754;2023-03-23T05:04:07;99543.09;;;11.33;nan
76864;BME280;65834;52.364;9.754;2023-03-23T05:06:44;99547.28;;;11.29;nan
76864;BME280;65834;52.364;9.754;2023-03-23T05:09:23;99555.63;;;11.27;nan
76864;BME280;65834;52.364;9.754;2023-03-23T05:11:53;99556.66;;;11.26;nan
76864;BME280;65834;52.364;9.754;2023-03-23T05:14:24;99565.88;;;11.19;nan
76864;BME280;65834;52.364;9.754;2023-03-23T05:17:04;99566.72;;;11.19;nan
76864;BME280;65834;52.364;9.754;2023-03-23T05:19:34;99571.31;;;11.19;nan
76864;BME280;65834;52.364;9.754;2023-03-23T05:22:16;99570.66;;;11.17;nan
76864;BME280;65834;52.364;9.754;2023-03-23T05:24:52;99567.34;;;11.15;nan
76864;BME280;65834;52.364;9.754;2023-03-23T05:27:22;99567.97;;;11.17;nan
76864;BME280;65834;52.364;9.754;2023-03-23T05:30:00;99563.63;;;11.16;nan
76864;BME280;65834;52.364;9.754;2023-03-23T05:32:32;99576.91;;;11.17;nan
76864;BME280;65834;52.364;9.754;2023-03-23T05:35:26;99569.03;;;11.16;nan
76864;BME280;65834;52.364;9.754;2023-03-23T05:37:56;99568.78;;;11.17;nan
76864;BME280;65834;52.364;9.754;2023-03-23T05:40:31;99575.44;;;11.21;nan
76864;BME280;65834;52.364;9.754;2023-03-23T05:43:15;99566.66;;;11.26;nan
76864;BME280;65834;52.364;9.754;2023-03-23T05:46:17;99556.47;;;11.28;nan
76864;BME280;65834;52.364;9.754;2023-03-23T05:48:47;99572.69;;;11.28;nan
76864;BME280;65834;52.364;9.754;2023-03-23T05:51:21;99563.91;;;11.32;nan
76864;BME280;65834;52.364;9.754;2023-03-23T05:53:50;99567.28;;;11.28;nan
76864;BME280;65834;52.364;9.754;2023-03-23T05:56:22;99563.94;;;11.26;nan
76864;BME280;65834;52.364;9.754;2023-03-23T05:59:04;99574.97;;;11.31;nan
76864;BME280;65834;52.364;9.754;2023-03-23T06:01:34;99579.56;;;11.30;nan
76864;BME280;65834;52.364;9.754;2023-03-23T06:04:04;99581.38;;;11.36;nan
76864;BME280;65834;52.364;9.754;2023-03-23T06:06:41;99578.41;;;11.44;nan
76864;BME280;65834;52.364;9.754;2023-03-23T06:09:11;99578.63;;;11.43;nan
76864;BME280;65834;52.364;9.754;2023-03-23T06:12:03;99575.69;;;11.44;nan
76864;BME280;65834;52.364;9.754;2023-03-23T06:14:46;99569.63;;;11.49;nan
76864;BME280;65834;52.364;9.754;2023-03-23T06:17:21;99562.13;;;11.51;nan
76864;BME280;65834;52.364;9.754;2023-03-23T06:19:52;99561.88;;;11.59;nan
76864;BME280;65834;52.364;9.754;2023-03-23T06:22:22;99563.94;;;11.57;nan
76864;BME280;65834;52.364;9.754;2023-03-23T06:25:03;99550.19;;;11.59;nan
76864;BME280;65834;52.364;9.754;2023-03-23T06:27:40;99563.34;;;11.55;nan
76864;BME280;65834;52.364;9.754;2023-03-23T06:30:12;99571.25;;;11.57;nan
76864;BME280;65834;52.364;9.754;2023-03-23T06:32:43;99558.88;;;11.67;nan
76864;BME280;65834;52.364;9.754;2023-03-23T06:35:17;99560.53;;;11.68;nan
76864;BME280;65834;52.364;9.754;2023-03-23T06:38:02;99567.44;;;11.71;nan
76864;BME280;65834;52.364;9.754;2023-03-23T06:40:42;99575.81;;;11.87;nan
76864;BME280;65834;52.364;9.754;2023-03-23T06:43:16;99573.88;;;11.94;nan
76864;BME280;65834;52.364;9.754;2023-03-23T06:46:02;99584.63;;;12.08;nan
76864;BME280;65834;52.364;9.754;2023-03-23T06:48:58;99586.03;;;12.10;nan
76864;BME280;65834;52.364;9.754;2023-03-23T06:51:39;99587.66;;;12.18;nan
76864;BME280;65834;52.364;9.754;2023-03-23T06:54:08;99588.84;;;12.22;nan
76864;BME280;65834;52.364;9.754;2023-03-23T06:56:40;99587.78;;;12.05;nan
76864;BME280;65834;52.364;9.754;2023-03-23T06:59:12;99587.31;;;12.08;nan
76864;BME280;65834;52.364;9.754;2023-03-23T07:01:42;99596.06;;;12.10;nan
76864;BME280;65834;52.364;9.754;2023-03-23T07:04:13;99597.72;;;12.11;nan
76864;BME280;65834;52.364;9.754;2023-03-23T07:06:50;99596.88;;;12.10;nan
76864;BME280;65834;52.364;9.754;2023-03-23T07:09:20;99595.47;;;12.08;nan
76864;BME280;65834;52.364;9.754;2023-03-23T07:12:03;99593.34;;;12.10;nan
76864;BME280;65834;52.364;9.754;2023-03-23T07:14:43;99600.00;;;12.14;nan
76864;BME280;65834;52.364;9.754;2023-03-23T07:17:13;99604.28;;;12.21;nan
76864;BME280;65834;52.364;9.754;2023-03-23T07:19:58;99601.97;;;12.25;nan
76864;BME280;65834;52.364;9.754;2023-03-23T07:22:28;99610.28;;;12.30;nan
76864;BME280;65834;52.364;9.754;2023-03-23T07:25:07;99603.56;;;12.32;nan
76864;BME280;65834;52.364;9.754;2023-03-23T07:27:46;99603.19;;;12.47;nan
76864;BME280;65834;52.364;9.754;2023-03-23T07:30:19;99595.84;;;12.54;nan
76864;BME280;65834;52.364;9.754;2023-03-23T07:32:49;99596.72;;;12.48;nan
76864;BME280;65834;52.364;9.754;2023-03-23T07:35:19;99599.00;;;12.51;nan
76864;BME280;65834;52.364;9.754;2023-03-23T07:38:02;99621.09;;;12.55;nan
76864;BME280;65834;52.364;9.754;2023-03-23T07:40:34;99597.84;;;12.59;nan
76864;BME280;65834;52.364;9.754;2023-03-23T07:43:09;99602.69;;;12.75;nan
76864;BME280;65834;52.364;9.754;2023-03-23T07:46:02;99608.63;;;12.83;nan
76864;BME280;65834;52.364;9.754;2023-03-23T07:48:42;99605.84;;;12.90;nan
76864;BME280;65834;52.364;9.754;2023-03-23T07:51:13;99605.09;;;13.01;nan
76864;BME280;65834;52.364;9.754;2023-03-23T07:53:46;99608.56;;;13.08;nan
76864;BME280;65834;52.364;9.754;2023-03-23T07:56:37;99614.22;;;13.07;nan
76864;BME280;65834;52.364;9.754;2023-03-23T07:59:14;99611.44;;;13.13;nan
76864;BME280;65834;52.364;9.754;2023-03-23T08:01:46;99600.38;;;13.26;nan
76864;BME280;65834;52.364;9.754;2023-03-23T08:04:28;99608.13;;;13.41;nan
76864;BME280;65834;52.364;9.754;2023-03-23T08:07:17;99613.16;;;13.55;nan
76864;BME280;65834;52.364;9.754;2023-03-23T08:10:03;99645.59;;;13.80;nan
76864;BME280;65834;52.364;9.754;2023-03-23T08:12:55;99614.84;;;13.68;nan
76864;BME280;65834;52.364;9.754;2023-03-23T08:15:47;99619.88;;;13.53;nan
76864;BME280;65834;52.364;9.754;2023-03-23T08:18:31;99623.28;;;13.48;nan
76864;BME280;65834;52.364;9.754;2023-03-23T08:21:12;99620.03;;;13.70;nan
76864;BME280;65834;52.364;9.754;2023-03-23T08:24:03;99628.44;;;13.80;nan
76864;BME280;65834;52.364;9.754;2023-03-23T08:26:49;99627.63;;;13.79;nan
76864;BME280;65834;52.364;9.754;2023-03-23T08:29:37;99623.66;;;13.93;nan
76864;BME280;65834;52.364;9.754;2023-03-23T08:32:26;99627.88;;;13.78;nan
76864;BME280;65834;52.364;9.754;2023-03-23T08:35:15;99617.06;;;13.60;nan
76864;BME280;65834;52.364;9.754;2023-03-23T08:38:09;99634.44;;;13.70;nan
76864;BME280;65834;52.364;9.754;2023-03-23T08:40:58;99634.94;;;13.79;nan
76864;BME280;65834;52.364;9.754;2023-03-23T08:43:49;99632.59;;;13.94;nan
76864;BME280;65834;52.364;9.754;2023-03-23T08:46:38;99633.91;;;14.03;nan
76864;BME280;65834;52.364;9.754;2023-03-23T08:49:31;99637.00;;;14.18;nan
76864;BME280;65834;52.364;9.754;2023-03-23T08:52:17;99644.34;;;14.06;nan
76864;BME280;65834;52.364;9.754;2023-03-23T08:54:52;99641.97;;;14.09;nan
76864;BME280;65834;52.364;9.754;2023-03-23T08:57:30;99647.88;;;13.95;nan
76864;BME280;65834;52.364;9.754;2023-03-23T09:00:15;99653.09;;;14.08;nan
76864;BME280;65834;52.364;9.754;2023-03-23T09:03:05;99650.97;;;13.98;nan
76864;BME280;65834;52.364;9.754;2023-03-23T09:05:46;99643.16;;;14.02;nan
76864;BME280;65834;52.364;9.754;2023-03-23T09:08:24;99654.88;;;14.02;nan
76864;BME280;65834;52.364;9.754;2023-03-23T09:10:57;99647.91;;;14.18;nan
76864;BME280;65834;52.364;9.754;2023-03-23T09:13:27;99643.47;;;13.94;nan
76864;BME280;65834;52.364;9.754;2023-03-23T09:15:58;99665.63;;;14.09;nan
76864;BME280;65834;52.364;9.754;2023-03-23T09:18:30;99652.38;;;14.01;nan
76864;BME280;65834;52.364;9.754;2023-03-23T09:21:02;99653.31;;;13.95;nan
76864;BME280;65834;52.364;9.754;2023-03-23T09:23:35;99656.41;;;13.98;nan
76864;BME280;65834;52.364;9.754;2023-03-23T09:26:05;99656.31;;;14.17;nan
76864;BME280;65834;52.364;9.754;2023-03-23T09:28:35;99654.44;;;14.29;nan
76864;BME280;65834;52.364;9.754;2023-03-23T09:31:05;99664.84;;;14.32;nan
76864;BME280;65834;52.364;9.754;2023-03-23T09:33:35;99666.22;;;14.11;nan
76864;BME280;65834;52.364;9.754;2023-03-23T09:36:05;99663.03;;;14.02;nan
76864;BME280;65834;52.364;9.754;2023-03-23T09:38:42;99659.69;;;14.00;nan
76864;BME280;65834;52.364;9.754;2023-03-23T09:41:26;99667.66;;;14.13;nan
76864;BME280;65834;52.364;9.754;2023-03-23T09:44:05;99671.19;;;14.02;nan
76864;BME280;65834;52.364;9.754;2023-03-23T09:46:48;99670.94;;;14.04;nan
76864;BME280;65834;52.364;9.754;2023-03-23T09:49:22;99673.56;;;14.10;nan
76864;BME280;65834;52.364;9.754;2023-03-23T09:51:55;99673.75;;;13.97;nan
76864;BME280;65834;52.364;9.754;2023-03-23T09:54:31;99677.56;;;13.96;nan
76864;BME280;65834;52.364;9.754;2023-03-23T09:57:05;99676.94;;;13.94;nan
76864;BME280;65834;52.364;9.754;2023-03-23T09:59:44;99681.44;;;13.89;nan
76864;BME280;65834;52.364;9.754;2023-03-23T10:02:21;99686.75;;;13.95;nan
76864;BME280;65834;52.364;9.754;2023-03-23T10:04:59;99686.84;;;13.89;nan
76864;BME280;65834;52.364;9.754;2023-03-23T10:07:33;99686.19;;;13.93;nan
76864;BME280;65834;52.364;9.754;2023-03-23T10:10:11;99689.94;;;13.92;nan
76864;BME280;65834;52.364;9.754;2023-03-23T10:12:49;99684.34;;;13.87;nan
76864;BME280;65834;52.364;9.754;2023-03-23T10:15:25;99694.34;;;13.93;nan
76864;BME280;65834;52.364;9.754;2023-03-23T10:17:58;99698.03;;;14.10;nan
76864;BME280;65834;52.364;9.754;2023-03-23T10:20:37;99704.63;;;14.33;nan
76864;BME280;65834;52.364;9.754;2023-03-23T10:23:20;99700.03;;;14.45;nan
76864;BME280;65834;52.364;9.754;2023-03-23T10:26:00;99701.69;;;14.57;nan
76864;BME280;65834;52.364;9.754;2023-03-23T10:28:39;99698.03;;;14.63;nan
76864;BME280;65834;52.364;9.754;2023-03-23T10:31:12;99700.25;;;14.78;nan
76864;BME280;65834;52.364;9.754;2023-03-23T10:33:45;99712.56;;;14.81;nan
76864;BME280;65834;52.364;9.754;2023-03-23T10:36:18;99704.03;;;14.77;nan
76864;BME280;65834;52.364;9.754;2023-03-23T10:38:55;99695.91;;;14.89;nan
76864;BME280;65834;52.364;9.754;2023-03-23T10:41:29;99697.25;;;15.14;nan
76864;BME280;65834;52.364;9.754;2023-03-23T10:44:09;99694.75;;;15.25;nan
76864;BME280;65834;52.364;9.754;2023-03-23T10:46:44;99704.59;;;15.94;nan
76864;BME280;65834;52.364;9.754;2023-03-23T10:49:21;99710.31;;;15.92;nan
76864;BME280;65834;52.364;9.754;2023-03-23T10:51:57;99711.69;;;16.23;nan
76864;BME280;65834;52.364;9.754;2023-03-23T10:54:35;99709.06;;;16.61;nan
76864;BME280;65834;52.364;9.754;2023-03-23T10:57:23;99711.38;;;16.36;nan
76864;BME280;65834;52.364;9.754;2023-03-23T11:00:00;99706.69;;;16.65;nan
76864;BME280;65834;52.364;9.754;2023-03-23T11:02:37;99707.31;;;16.39;nan
76864;BME280;65834;52.364;9.754;2023-03-23T11:05:16;99704.13;;;17.13;nan
76864;BME280;65834;52.364;9.754;2023-03-23T11:07:52;99700.91;;;17.00;nan
76864;BME280;65834;52.364;9.754;2023-03-23T11:10:24;99698.47;;;16.82;nan
76864;BME280;65834;52.364;9.754;2023-03-23T11:12:58;99693.00;;;17.42;nan
76864;BME280;65834;52.364;9.754;2023-03-23T11:15:33;99693.00;;;17.20;nan
76864;BME280;65834;52.364;9.754;2023-03-23T11:18:06;99687.22;;;17.16;nan
76864;BME280;65834;52.364;9.754;2023-03-23T11:20:40;99700.38;;;17.19;nan
76864;BME280;65834;52.364;9.754;2023-03-23T11:23:13;99695.53;;;17.48;nan
76864;BME280;65834;52.364;9.754;2023-03-23T11:25:56;99700.81;;;17.76;nan
76864;BME280;65834;52.364;9.754;2023-03-23T11:28:31;99701.06;;;17.10;nan
76864;BME280;65834;52.364;9.754;2023-03-23T11:31:04;99701.91;;;17.75;nan
76864;BME280;65834;52.364;9.754;2023-03-23T11:33:42;99703.56;;;17.76;nan
76864;BME280;65834;52.364;9.754;2023-03-23T11:36:29;99693.00;;;16.82;nan
76864;BME280;65834;52.364;9.754;2023-03-23T11:39:00;99698.53;;;17.25;nan
76864;BME280;65834;52.364;9.754;2023-03-23T11:41:33;99704.28;;;16.85;nan
76864;BME280;65834;52.364;9.754;2023-03-23T11:44:09;99699.06;;;16.67;nan
76864;BME280;65834;52.364;9.754;2023-03-23T11:46:45;99707.84;;;16.69;nan
76864;BME280;65834;52.364;9.754;2023-03-23T11:49:25;99708.28;;;16.61;nan
76864;BME280;65834;52.364;9.754;2023-03-23T11:52:08;99705.47;;;16.11;nan
76864;BME280;65834;52.364;9.754;2023-03-23T11:54:42;99701.72;;;15.84;nan
76864;BME280;65834;52.364;9.754;2023-03-23T11:57:13;99703.53;;;15.66;nan
76864;BME280;65834;52.364;9.754;2023-03-23T11:59:45;99696.53;;;15.70;nan
76864;BME280;65834;52.364;9.754;2023-03-23T12:02:37;99703.06;;;15.69;nan
76864;BME280;65834;52.364;9.754;2023-03-23T12:05:31;99710.22;;;15.59;nan
76864;BME280;65834;52.364;9.754;2023-03-23T12:08:14;99720.91;;;15.37;nan
76864;BME280;65834;52.364;9.754;2023-03-23T12:10:55;99749.50;;;15.11;nan
76864;BME280;65834;52.364;9.754;2023-03-23T12:13:47;99763.09;;;13.64;nan
76864;BME280;65834;52.364;9.754;2023-03-23T12:16:33;99770.09;;;12.74;nan
76864;BME280;65834;52.364;9.754;2023-03-23T12:19:12;99763.66;;;12.69;nan
76864;BME280;65834;52.364;9.754;2023-03-23T12:21:54;99759.72;;;12.65;nan
76864;BME280;65834;52.364;9.754;2023-03-23T12:24:40;99765.78;;;12.91;nan
76864;BME280;65834;52.364;9.754;2023-03-23T12:27:17;99769.66;;;12.52;nan
76864;BME280;65834;52.364;9.754;2023-03-23T12:30:01;99777.72;;;12.84;nan
76864;BME280;65834;52.364;9.754;2023-03-23T12:32:47;99783.81;;;13.04;nan
76864;BME280;65834;52.364;9.754;2023-03-23T12:35:33;99783.56;;;13.05;nan
76864;BME280;65834;52.364;9.754;2023-03-23T12:38:19;99780.88;;;13.05;nan
76864;BME280;65834;52.364;9.754;2023-03-23T12:41:00;99787.72;;;13.51;nan
76864;BME280;65834;52.364;9.754;2023-03-23T12:43:38;99786.97;;;13.26;nan
76864;BME280;65834;52.364;9.754;2023-03-23T12:46:46;99842.47;;;13.30;nan
76864;BME280;65834;52.364;9.754;2023-03-23T12:49:25;99791.44;;;12.89;nan
76864;BME280;65834;52.364;9.754;2023-03-23T12:52:00;99788.75;;;13.14;nan
76864;BME280;65834;52.364;9.754;2023-03-23T12:54:39;99785.13;;;13.20;nan
76864;BME280;65834;52.364;9.754;2023-03-23T12:57:14;99793.97;;;13.15;nan
76864;BME280;65834;52.364;9.754;2023-03-23T12:59:53;99793.75;;;13.53;nan
76864;BME280;65834;52.364;9.754;2023-03-23T13:02:28;99788.59;;;13.81;nan
76864;BME280;65834;52.364;9.754;2023-03-23T13:05:06;99782.81;;;13.78;nan
76864;BME280;65834;52.364;9.754;2023-03-23T13:07:43;99785.31;;;13.91;nan
76864;BME280;65834;52.364;9.754;2023-03-23T13:10:20;99794.34;;;14.62;nan
76864;BME280;65834;52.364;9.754;2023-03-23T13:12:51;99804.13;;;14.22;nan
76864;BME280;65834;52.364;9.754;2023-03-23T13:15:32;99792.31;;;13.69;nan
76864;BME280;65834;52.364;9.754;2023-03-23T13:18:07;99788.38;;;13.65;nan
76864;BME280;65834;52.364;9.754;2023-03-23T13:20:51;99796.16;;;13.00;nan
76864;BME280;65834;52.364;9.754;2023-03-23T13:23:25;99779.59;;;13.08;nan
76864;BME280;65834;52.364;9.754;2023-03-23T13:25:58;99781.75;;;13.24;nan
76864;BME280;65834;52.364;9.754;2023-03-23T13:28:31;99785.66;;;13.10;nan
76864;BME280;65834;52.364;9.754;2023-03-23T13:31:10;99796.38;;;12.98;nan
76864;BME280;65834;52.364;9.754;2023-03-23T13:33:46;99788.75;;;12.89;nan
76864;BME280;65834;52.364;9.754;2023-03-23T13:36:27;99792.47;;;12.94;nan
76864;BME280;65834;52.364;9.754;2023-03-23T13:38:59;99796.03;;;12.95;nan
76864;BME280;65834;52.364;9.754;2023-03-23T13:41:30;99794.75;;;12.97;nan
76864;BME280;65834;52.364;9.754;2023-03-23T13:44:17;99803.09;;;12.96;nan
76864;BME280;65834;52.364;9.754;2023-03-23T13:47:07;99810.16;;;12.79;nan
76864;BME280;65834;52.364;9.754;2023-03-23T13:49:46;99808.97;;;12.68;nan
76864;BME280;65834;52.364;9.754;2023-03-23T13:52:23;99813.59;;;12.86;nan
76864;BME280;65834;52.364;9.754;2023-03-23T13:55:13;99811.19;;;13.02;nan
76864;BME280;65834;52.364;9.754;2023-03-23T13:57:51;99802.56;;;13.12;nan
76864;BME280;65834;52.364;9.754;2023-03-23T14:00:44;99799.47;;;13.27;nan
76864;BME280;65834;52.364;9.754;2023-03-23T14:03:18;99782.00;;;12.98;nan
76864;BME280;65834;52.364;9.754;2023-03-23T14:05:49;99800.38;;;12.96;nan
76864;BME280;65834;52.364;9.754;2023-03-23T14:08:25;99798.50;;;12.96;nan
76864;BME280;65834;52.364;9.754;2023-03-23T14:11:12;99793.31;;;12.95;nan
76864;BME280;65834;52.364;9.754;2023-03-23T14:13:50;99794.00;;;12.84;nan
76864;BME280;65834;52.364;9.754;2023-03-23T14:16:23;99788.81;;;12.82;nan
76864;BME280;65834;52.364;9.754;2023-03-23T14:18:55;99786.84;;;12.89;nan
76864;BME280;65834;52.364;9.754;2023-03-23T14:21:34;99782.06;;;13.16;nan
76864;BME280;65834;52.364;9.754;2023-03-23T14:24:10;99788.88;;;13.00;nan
76864;BME280;65834;52.364;9.754;2023-03-23T14:26:41;99784.41;;;13.06;nan
76864;BME280;65834;52.364;9.754;2023-03-23T14:29:13;99779.81;;;13.07;nan
76864;BME280;65834;52.364;9.754;2023-03-23T14:31:43;99789.97;;;12.93;nan
76864;BME280;65834;52.364;9.754;2023-03-23T14:34:15;99791.41;;;12.95;nan
76864;BME280;65834;52.364;9.754;2023-03-23T14:36:47;99798.28;;;12.98;nan
76864;BME280;65834;52.364;9.754;2023-03-23T14:39:23;99796.22;;;12.93;nan
76864;BME280;65834;52.364;9.754;2023-03-23T14:41:54;99802.88;;;12.97;nan
76864;BME280;65834;52.364;9.754;2023-03-23T14:44:27;99807.84;;;13.80;nan
76864;BME280;65834;52.364;9.754;2023-03-23T14:47:02;99808.78;;;14.51;nan
76864;BME280;65834;52.364;9.754;2023-03-23T14:49:35;99807.28;;;14.07;nan
76864;BME280;65834;52.364;9.754;2023-03-23T14:52:10;99806.44;;;13.77;nan
76864;BME280;65834;52.364;9.754;2023-03-23T14:54:43;99811.25;;;13.75;nan
76864;BME280;65834;52.364;9.754;2023-03-23T14:57:14;99808.91;;;13.61;nan
76864;BME280;65834;52.364;9.754;2023-03-23T14:59:46;99818.34;;;13.40;nan
76864;BME280;65834;52.364;9.754;2023-03-23T15:02:20;99818.34;;;13.40;nan
76864;BME280;65834;52.364;9.754;2023-03-23T15:04:55;99828.78;;;13.43;nan
76864;BME280;65834;52.364;9.754;2023-03-23T15:07:29;99819.56;;;13.80;nan
76864;BME280;65834;52.364;9.754;2023-03-23T15:10:05;99815.16;;;14.27;nan
76864;BME280;65834;52.364;9.754;2023-03-23T15:12:36;99806.25;;;13.90;nan
76864;BME280;65834;52.364;9.754;2023-03-23T15:15:07;99814.28;;;13.67;nan
76864;BME280;65834;52.364;9.754;2023-03-23T15:17:45;99812.91;;;13.40;nan
76864;BME280;65834;52.364;9.754;2023-03-23T15:20:21;99820.38;;;13.01;nan
76864;BME280;65834;52.364;9.754;2023-03-23T15:22:52;99827.19;;;13.11;nan
76864;BME280;65834;52.364;9.754;2023-03-23T15:25:31;99806.03;;;13.19;nan
76864;BME280;65834;52.364;9.754;2023-03-23T15:28:14;99795.28;;;13.06;nan
76864;BME280;65834;52.364;9.754;2023-03-23T15:30:49;99811.19;;;13.02;nan
76864;BME280;65834;52.364;9.754;2023-03-23T15:33:19;99813.75;;;12.73;nan